CMA CGM Herodote — MFEP — position and weather

sailwx.info

Track history (hours):
 
Tides and Currents Weather Stations Pressure Air Temp Water Temp Dewpoint Dewpoint Depression Visibility Wind Speed Wind Dir Waves Ship Positions

CMA CGM Herodote

Last reported at 2016-Feb-13 05:29 UTC. Time now 2016-Feb-14 23:06 UTC.
Position N 35°56' W 005°48'.

Length 170 m; draft 7.9 m.

Type: Ship (hazmat cat A). MMSI: 235051085.

Date/timePositionNaut miles runAvg speedWind from/ knotsBaromVisibWave heightAir tempDewpointWater temp
2016-Feb-13 05:29N 35°56' W 005°48'119 6.3
2016-Feb-12 10:33N 36°20' W 008°12'2020.2
2016-Feb-12 09:33N 36°25' W 008°36'2020.0
2016-Feb-12 08:33N 36°30' W 009°00'2019.1
2016-Feb-12 07:30N 36°39' W 009°23'2019.5
2016-Feb-12 06:30N 36°55' W 009°35'4019.8
2016-Feb-12 04:30N 37°34' W 009°47'2020.1
2016-Feb-12 03:30N 37°53' W 009°53'1717.8
2016-Feb-12 02:33N 38°10' W 009°57'2020.1
2016-Feb-12 01:33N 38°30' W 010°02'2019.8
2016-Feb-12 00:33N 38°49' W 010°06'2019.7
2016-Feb-11 23:33N 39°09' W 010°06'2221.6
2016-Feb-11 22:33N 39°31' W 010°07'2019.0
2016-Feb-11 21:30N 39°51' W 010°08'2019.7
2016-Feb-11 20:30N 40°10' W 010°07'1818.7
2016-Feb-11 19:33N 40°28' W 010°07'2120.3
2016-Feb-11 18:30N 40°48' W 009°59'2017.8
2016-Feb-11 17:24N 41°06' W 009°48'1921.4
2016-Feb-11 16:30N 41°23' W 009°37'1818.5
2016-Feb-11 15:33N 41°39' W 009°26'1919.1
2016-Feb-11 14:33N 41°55' W 009°13'  
2016-Feb-07 11:33N 49°28' W 000°52'8 8.3
2016-Feb-07 10:33N 49°30' W 000°40'1515.2
2016-Feb-07 09:33N 49°31' W 000°16'1111.3
2016-Feb-07 08:33N 49°27' E 000°00'1010.4
2016-Feb-07 07:33N 49°26' E 000°16'10 8.4
2016-Feb-07 06:19N 49°29' E 000°31'6 0.2
2016-Feb-05 18:11N 49°28' E 000°40'8 8.8
2016-Feb-05 17:18N 49°28' E 000°28'1115.0
2016-Feb-05 16:34N 49°26' E 000°11'5 5.4
2016-Feb-05 15:33N 49°29' E 000°05'4 3.6
2016-Feb-05 14:32N 49°27' E 000°10'0 0.0
2016-Feb-05 13:32N 49°27' E 000°10'0 0.0
2016-Feb-05 12:32N 49°27' E 000°10'0 0.0
2016-Feb-05 11:32N 49°27' E 000°10'0 0.0
2016-Feb-05 10:32N 49°27' E 000°10'0 0.0
2016-Feb-05 09:32N 49°27' E 000°10'0 0.0
2016-Feb-05 08:32N 49°27' E 000°10'0 0.0
2016-Feb-05 07:32N 49°27' E 000°10'0 0.0
2016-Feb-05 06:32N 49°27' E 000°10'0 0.0
2016-Feb-05 05:32N 49°27' E 000°10'0 0.1
2016-Feb-05 04:34N 49°27' E 000°10'9 9.0
2016-Feb-05 03:34N 49°30' W 000°04'9 8.7
2016-Feb-05 02:34N 49°37' W 000°12'1212.1
2016-Feb-05 01:34N 49°49' W 000°11'8113.3
2016-Feb-04 19:30N 50°51' E 001°10'1415.3
2016-Feb-04 18:33N 51°01' E 001°27'1312.7
2016-Feb-04 17:34N 51°03' E 001°47'1413.5
2016-Feb-04 16:33N 51°03' E 002°08'3 2.7
2016-Feb-04 15:29N 51°01' E 002°11'0 0.0
2016-Feb-04 14:29N 51°01' E 002°11'0 0.0
2016-Feb-04 13:32N 51°01' E 002°11'0 0.0
2016-Feb-04 12:32N 51°01' E 002°11'0 0.0
2016-Feb-04 11:32N 51°01' E 002°11'0 0.0
2016-Feb-04 10:32N 51°01' E 002°11'0 0.0
2016-Feb-04 09:23N 51°01' E 002°11'0 0.0
2016-Feb-04 08:29N 51°01' E 002°11'0 0.0
2016-Feb-04 07:29N 51°01' E 002°11'0 0.0
2016-Feb-04 06:32N 51°01' E 002°11'5 5.4
2016-Feb-04 05:34N 51°03' E 002°03'1110.9
2016-Feb-04 04:34N 51°01' E 001°46'1211.7
2016-Feb-04 03:34N 51°13' E 001°47'1616.3
2016-Feb-04 02:33N 51°23' E 002°07'1818.1
2016-Feb-04 01:33N 51°23' E 002°36'1211.9
2016-Feb-04 00:33N 51°23' E 002°55'1413.9
2016-Feb-03 23:33N 51°25' E 003°17'1212.1
2016-Feb-03 22:33N 51°26' E 003°36'1212.3
2016-Feb-03 21:33N 51°22' E 003°55'8 7.9
2016-Feb-03 20:33N 51°22' E 004°07'7 7.0
2016-Feb-03 19:34N 51°18' E 004°16'0 0.1
2016-Feb-03 18:29N 51°18' E 004°16'0 0.0
2016-Feb-03 17:32N 51°18' E 004°16'0 0.0
2016-Feb-03 16:26N 51°18' E 004°16'0 0.0
2016-Feb-03 15:29N 51°18' E 004°16'0 0.0
2016-Feb-03 14:26N 51°18' E 004°16'0 0.0
2016-Feb-03 13:29N 51°18' E 004°16'0 0.0
2016-Feb-03 12:32N 51°18' E 004°16'0 0.0
2016-Feb-03 11:29N 51°18' E 004°16'0 0.0
2016-Feb-03 10:32N 51°18' E 004°16'0 0.0
2016-Feb-03 09:33N 51°18' E 004°16'7 6.8
2016-Feb-03 08:33N 51°24' E 004°11'1110.8
2016-Feb-03 07:33N 51°21' E 003°54'1413.6
2016-Feb-03 06:33N 51°27' E 003°34'1313.1
2016-Feb-03 05:33N 51°37' E 003°21'  
Track history (hours):
 
Tides and Currents Weather Stations Pressure Air Temp Water Temp Dewpoint Dewpoint Depression Visibility Wind Speed Wind Dir Waves Ship Positions

CMA CGM Herodote

Last reported at 2016-Feb-13 05:29 UTC. Time now 2016-Feb-14 23:06 UTC.
Position N 35°56' W 005°48'.

Length 170 m; draft 7.9 m.

Type: Ship (hazmat cat A). MMSI: 235051085.

Date/timePositionNaut miles runAvg speedWind from/ knotsBaromVisibWave heightAir tempDewpointWater temp
2016-Feb-13 05:29N 35°56' W 005°48'119 6.3
2016-Feb-12 10:33N 36°20' W 008°12'2020.2
2016-Feb-12 09:33N 36°25' W 008°36'2020.0
2016-Feb-12 08:33N 36°30' W 009°00'2019.1
2016-Feb-12 07:30N 36°39' W 009°23'2019.5
2016-Feb-12 06:30N 36°55' W 009°35'4019.8
2016-Feb-12 04:30N 37°34' W 009°47'2020.1
2016-Feb-12 03:30N 37°53' W 009°53'1717.8
2016-Feb-12 02:33N 38°10' W 009°57'2020.1
2016-Feb-12 01:33N 38°30' W 010°02'2019.8
2016-Feb-12 00:33N 38°49' W 010°06'2019.7
2016-Feb-11 23:33N 39°09' W 010°06'2221.6
2016-Feb-11 22:33N 39°31' W 010°07'2019.0
2016-Feb-11 21:30N 39°51' W 010°08'2019.7
2016-Feb-11 20:30N 40°10' W 010°07'1818.7
2016-Feb-11 19:33N 40°28' W 010°07'2120.3
2016-Feb-11 18:30N 40°48' W 009°59'2017.8
2016-Feb-11 17:24N 41°06' W 009°48'1921.4
2016-Feb-11 16:30N 41°23' W 009°37'1818.5
2016-Feb-11 15:33N 41°39' W 009°26'1919.1
2016-Feb-11 14:33N 41°55' W 009°13'  
2016-Feb-07 11:33N 49°28' W 000°52'8 8.3
2016-Feb-07 10:33N 49°30' W 000°40'1515.2
2016-Feb-07 09:33N 49°31' W 000°16'1111.3
2016-Feb-07 08:33N 49°27' E 000°00'1010.4
2016-Feb-07 07:33N 49°26' E 000°16'10 8.4
2016-Feb-07 06:19N 49°29' E 000°31'6 0.2
2016-Feb-05 18:11N 49°28' E 000°40'8 8.8
2016-Feb-05 17:18N 49°28' E 000°28'1115.0
2016-Feb-05 16:34N 49°26' E 000°11'5 5.4
2016-Feb-05 15:33N 49°29' E 000°05'4 3.6
2016-Feb-05 14:32N 49°27' E 000°10'0 0.0
2016-Feb-05 13:32N 49°27' E 000°10'0 0.0
2016-Feb-05 12:32N 49°27' E 000°10'0 0.0
2016-Feb-05 11:32N 49°27' E 000°10'0 0.0
2016-Feb-05 10:32N 49°27' E 000°10'0 0.0
2016-Feb-05 09:32N 49°27' E 000°10'0 0.0
2016-Feb-05 08:32N 49°27' E 000°10'0 0.0
2016-Feb-05 07:32N 49°27' E 000°10'0 0.0
2016-Feb-05 06:32N 49°27' E 000°10'0 0.0
2016-Feb-05 05:32N 49°27' E 000°10'0 0.1
2016-Feb-05 04:34N 49°27' E 000°10'9 9.0
2016-Feb-05 03:34N 49°30' W 000°04'9 8.7
2016-Feb-05 02:34N 49°37' W 000°12'1212.1
2016-Feb-05 01:34N 49°49' W 000°11'8113.3
2016-Feb-04 19:30N 50°51' E 001°10'1415.3
2016-Feb-04 18:33N 51°01' E 001°27'1312.7
2016-Feb-04 17:34N 51°03' E 001°47'1413.5
2016-Feb-04 16:33N 51°03' E 002°08'3 2.7
2016-Feb-04 15:29N 51°01' E 002°11'0 0.0
2016-Feb-04 14:29N 51°01' E 002°11'0 0.0
2016-Feb-04 13:32N 51°01' E 002°11'0 0.0
2016-Feb-04 12:32N 51°01' E 002°11'0 0.0
2016-Feb-04 11:32N 51°01' E 002°11'0 0.0
2016-Feb-04 10:32N 51°01' E 002°11'0 0.0
2016-Feb-04 09:23N 51°01' E 002°11'0 0.0
2016-Feb-04 08:29N 51°01' E 002°11'0 0.0
2016-Feb-04 07:29N 51°01' E 002°11'0 0.0
2016-Feb-04 06:32N 51°01' E 002°11'5 5.4
2016-Feb-04 05:34N 51°03' E 002°03'1110.9
2016-Feb-04 04:34N 51°01' E 001°46'1211.7
2016-Feb-04 03:34N 51°13' E 001°47'1616.3
2016-Feb-04 02:33N 51°23' E 002°07'1818.1
2016-Feb-04 01:33N 51°23' E 002°36'1211.9
2016-Feb-04 00:33N 51°23' E 002°55'1413.9
2016-Feb-03 23:33N 51°25' E 003°17'1212.1
2016-Feb-03 22:33N 51°26' E 003°36'1212.3
2016-Feb-03 21:33N 51°22' E 003°55'8 7.9
2016-Feb-03 20:33N 51°22' E 004°07'7 7.0
2016-Feb-03 19:34N 51°18' E 004°16'0 0.1
2016-Feb-03 18:29N 51°18' E 004°16'0 0.0
2016-Feb-03 17:32N 51°18' E 004°16'0 0.0
2016-Feb-03 16:26N 51°18' E 004°16'0 0.0
2016-Feb-03 15:29N 51°18' E 004°16'0 0.0
2016-Feb-03 14:26N 51°18' E 004°16'0 0.0
2016-Feb-03 13:29N 51°18' E 004°16'0 0.0
2016-Feb-03 12:32N 51°18' E 004°16'0 0.0
2016-Feb-03 11:29N 51°18' E 004°16'0 0.0
2016-Feb-03 10:32N 51°18' E 004°16'0 0.0
2016-Feb-03 09:33N 51°18' E 004°16'7 6.8
2016-Feb-03 08:33N 51°24' E 004°11'1110.8
2016-Feb-03 07:33N 51°21' E 003°54'1413.6
2016-Feb-03 06:33N 51°27' E 003°34'1313.1
2016-Feb-03 05:33N 51°37' E 003°21'  

Dump ship's entire track history